sensor_id;sensor_type;location;lat;lon;timestamp;P1;durP1;ratioP1;P2;durP2;ratioP2
7444;SDS011;3764;48.126;11.594;2023-04-03T00:01:47;8.13;;;6.75;;
7444;SDS011;3764;48.126;11.594;2023-04-03T00:04:15;11.63;;;7.00;;
7444;SDS011;3764;48.126;11.594;2023-04-03T00:06:42;11.18;;;8.30;;
7444;SDS011;3764;48.126;11.594;2023-04-03T00:09:10;9.65;;;7.93;;
7444;SDS011;3764;48.126;11.594;2023-04-03T00:11:37;10.50;;;7.32;;
7444;SDS011;3764;48.126;11.594;2023-04-03T00:14:04;9.90;;;7.10;;
7444;SDS011;3764;48.126;11.594;2023-04-03T00:16:31;9.05;;;6.85;;
7444;SDS011;3764;48.126;11.594;2023-04-03T00:18:58;8.63;;;7.13;;
7444;SDS011;3764;48.126;11.594;2023-04-03T00:21:26;10.32;;;8.07;;
7444;SDS011;3764;48.126;11.594;2023-04-03T00:23:54;11.20;;;6.93;;
7444;SDS011;3764;48.126;11.594;2023-04-03T00:26:21;10.85;;;7.78;;
7444;SDS011;3764;48.126;11.594;2023-04-03T00:28:48;11.57;;;8.32;;
7444;SDS011;3764;48.126;11.594;2023-04-03T00:31:15;12.50;;;7.63;;
7444;SDS011;3764;48.126;11.594;2023-04-03T00:33:42;8.60;;;6.22;;
7444;SDS011;3764;48.126;11.594;2023-04-03T00:36:09;8.60;;;6.68;;
7444;SDS011;3764;48.126;11.594;2023-04-03T00:38:40;13.73;;;7.20;;
7444;SDS011;3764;48.126;11.594;2023-04-03T00:41:07;9.55;;;8.32;;
7444;SDS011;3764;48.126;11.594;2023-04-03T00:43:34;11.25;;;6.57;;
7444;SDS011;3764;48.126;11.594;2023-04-03T00:46:01;8.05;;;7.18;;
7444;SDS011;3764;48.126;11.594;2023-04-03T00:48:29;8.93;;;6.05;;
7444;SDS011;3764;48.126;11.594;2023-04-03T00:50:58;8.27;;;7.00;;
7444;SDS011;3764;48.126;11.594;2023-04-03T00:53:27;7.30;;;6.50;;
7444;SDS011;3764;48.126;11.594;2023-04-03T00:56:01;10.77;;;7.75;;
7444;SDS011;3764;48.126;11.594;2023-04-03T00:58:32;9.65;;;6.82;;
7444;SDS011;3764;48.126;11.594;2023-04-03T01:01:03;10.07;;;6.80;;
7444;SDS011;3764;48.126;11.594;2023-04-03T01:03:34;9.77;;;6.63;;
7444;SDS011;3764;48.126;11.594;2023-04-03T01:06:01;7.93;;;6.47;;
7444;SDS011;3764;48.126;11.594;2023-04-03T01:08:29;8.98;;;7.00;;
7444;SDS011;3764;48.126;11.594;2023-04-03T01:10:56;8.77;;;6.53;;
7444;SDS011;3764;48.126;11.594;2023-04-03T01:13:25;11.88;;;6.93;;
7444;SDS011;3764;48.126;11.594;2023-04-03T01:15:55;9.52;;;6.97;;
7444;SDS011;3764;48.126;11.594;2023-04-03T01:18:23;7.80;;;6.15;;
7444;SDS011;3764;48.126;11.594;2023-04-03T01:23:58;9.82;;;6.80;;
7444;SDS011;3764;48.126;11.594;2023-04-03T01:26:39;8.50;;;7.03;;
7444;SDS011;3764;48.126;11.594;2023-04-03T01:29:08;9.68;;;6.45;;
7444;SDS011;3764;48.126;11.594;2023-04-03T01:31:51;8.00;;;7.20;;
7444;SDS011;3764;48.126;11.594;2023-04-03T01:34:19;7.32;;;6.47;;
7444;SDS011;3764;48.126;11.594;2023-04-03T01:36:46;8.60;;;6.90;;
7444;SDS011;3764;48.126;11.594;2023-04-03T01:39:14;10.50;;;7.07;;
7444;SDS011;3764;48.126;11.594;2023-04-03T01:41:41;8.05;;;5.97;;
7444;SDS011;3764;48.126;11.594;2023-04-03T01:44:08;8.07;;;6.80;;
7444;SDS011;3764;48.126;11.594;2023-04-03T01:46:35;8.85;;;6.57;;
7444;SDS011;3764;48.126;11.594;2023-04-03T01:49:04;9.93;;;6.60;;
7444;SDS011;3764;48.126;11.594;2023-04-03T01:51:31;7.57;;;6.80;;
7444;SDS011;3764;48.126;11.594;2023-04-03T01:53:59;11.57;;;6.45;;
7444;SDS011;3764;48.126;11.594;2023-04-03T01:56:26;7.90;;;6.53;;
7444;SDS011;3764;48.126;11.594;2023-04-03T01:58:53;10.93;;;6.60;;
7444;SDS011;3764;48.126;11.594;2023-04-03T02:01:20;9.90;;;7.82;;
7444;SDS011;3764;48.126;11.594;2023-04-03T02:03:47;6.45;;;5.50;;
7444;SDS011;3764;48.126;11.594;2023-04-03T02:06:16;8.13;;;6.60;;
7444;SDS011;3764;48.126;11.594;2023-04-03T02:08:43;9.35;;;6.05;;
7444;SDS011;3764;48.126;11.594;2023-04-03T02:11:10;9.07;;;6.65;;
7444;SDS011;3764;48.126;11.594;2023-04-03T02:13:37;9.05;;;7.07;;
7444;SDS011;3764;48.126;11.594;2023-04-03T02:16:08;7.35;;;5.57;;
7444;SDS011;3764;48.126;11.594;2023-04-03T02:18:36;6.95;;;6.25;;
7444;SDS011;3764;48.126;11.594;2023-04-03T02:21:03;9.43;;;6.85;;
7444;SDS011;3764;48.126;11.594;2023-04-03T02:23:32;10.77;;;6.97;;
7444;SDS011;3764;48.126;11.594;2023-04-03T02:26:08;8.38;;;5.82;;
7444;SDS011;3764;48.126;11.594;2023-04-03T02:28:37;8.23;;;6.40;;
7444;SDS011;3764;48.126;11.594;2023-04-03T02:31:04;7.85;;;6.57;;
7444;SDS011;3764;48.126;11.594;2023-04-03T02:33:32;9.98;;;6.55;;
7444;SDS011;3764;48.126;11.594;2023-04-03T02:36:01;9.27;;;6.65;;
7444;SDS011;3764;48.126;11.594;2023-04-03T02:38:29;6.95;;;6.25;;
7444;SDS011;3764;48.126;11.594;2023-04-03T02:40:59;10.63;;;6.63;;
7444;SDS011;3764;48.126;11.594;2023-04-03T02:43:27;7.65;;;6.28;;
7444;SDS011;3764;48.126;11.594;2023-04-03T02:45:54;6.50;;;5.65;;
7444;SDS011;3764;48.126;11.594;2023-04-03T02:48:21;6.78;;;5.40;;
7444;SDS011;3764;48.126;11.594;2023-04-03T02:50:48;7.32;;;5.75;;
7444;SDS011;3764;48.126;11.594;2023-04-03T02:53:16;6.60;;;5.95;;
7444;SDS011;3764;48.126;11.594;2023-04-03T02:55:44;7.70;;;5.60;;
7444;SDS011;3764;48.126;11.594;2023-04-03T02:58:12;5.70;;;5.07;;
7444;SDS011;3764;48.126;11.594;2023-04-03T03:00:39;6.28;;;5.32;;
7444;SDS011;3764;48.126;11.594;2023-04-03T03:03:07;6.20;;;5.53;;
7444;SDS011;3764;48.126;11.594;2023-04-03T03:05:34;5.32;;;4.80;;
7444;SDS011;3764;48.126;11.594;2023-04-03T03:08:01;6.90;;;5.32;;
7444;SDS011;3764;48.126;11.594;2023-04-03T03:10:28;6.20;;;5.20;;
7444;SDS011;3764;48.126;11.594;2023-04-03T03:12:56;6.20;;;5.10;;
7444;SDS011;3764;48.126;11.594;2023-04-03T03:15:24;6.50;;;5.47;;
7444;SDS011;3764;48.126;11.594;2023-04-03T03:17:51;5.28;;;4.65;;
7444;SDS011;3764;48.126;11.594;2023-04-03T03:20:18;5.85;;;4.45;;
7444;SDS011;3764;48.126;11.594;2023-04-03T03:22:46;4.53;;;4.13;;
7444;SDS011;3764;48.126;11.594;2023-04-03T03:25:13;4.57;;;3.95;;
7444;SDS011;3764;48.126;11.594;2023-04-03T03:27:40;6.13;;;4.57;;
7444;SDS011;3764;48.126;11.594;2023-04-03T03:30:09;4.88;;;4.00;;
7444;SDS011;3764;48.126;11.594;2023-04-03T03:32:36;4.82;;;4.30;;
7444;SDS011;3764;48.126;11.594;2023-04-03T03:35:03;4.88;;;4.40;;
7444;SDS011;3764;48.126;11.594;2023-04-03T03:37:31;4.93;;;4.10;;
7444;SDS011;3764;48.126;11.594;2023-04-03T03:39:58;9.70;;;4.30;;
7444;SDS011;3764;48.126;11.594;2023-04-03T03:42:25;5.10;;;4.30;;
7444;SDS011;3764;48.126;11.594;2023-04-03T03:44:52;8.82;;;4.53;;
7444;SDS011;3764;48.126;11.594;2023-04-03T03:47:20;7.90;;;4.82;;
7444;SDS011;3764;48.126;11.594;2023-04-03T03:49:47;5.85;;;3.67;;
7444;SDS011;3764;48.126;11.594;2023-04-03T03:52:15;4.45;;;4.00;;
7444;SDS011;3764;48.126;11.594;2023-04-03T03:54:42;6.10;;;4.10;;
7444;SDS011;3764;48.126;11.594;2023-04-03T03:57:09;7.22;;;4.30;;
7444;SDS011;3764;48.126;11.594;2023-04-03T03:59:36;7.72;;;4.30;;
7444;SDS011;3764;48.126;11.594;2023-04-03T04:02:03;4.45;;;4.03;;
7444;SDS011;3764;48.126;11.594;2023-04-03T04:04:31;3.90;;;3.50;;
7444;SDS011;3764;48.126;11.594;2023-04-03T04:06:58;6.28;;;5.15;;
7444;SDS011;3764;48.126;11.594;2023-04-03T04:09:26;5.00;;;4.43;;
7444;SDS011;3764;48.126;11.594;2023-04-03T04:11:53;6.43;;;3.97;;
7444;SDS011;3764;48.126;11.594;2023-04-03T04:14:20;4.40;;;4.00;;
7444;SDS011;3764;48.126;11.594;2023-04-03T04:16:47;4.20;;;3.80;;
7444;SDS011;3764;48.126;11.594;2023-04-03T04:19:15;4.72;;;4.22;;
7444;SDS011;3764;48.126;11.594;2023-04-03T04:21:43;4.40;;;4.00;;
7444;SDS011;3764;48.126;11.594;2023-04-03T04:24:10;5.65;;;4.43;;
7444;SDS011;3764;48.126;11.594;2023-04-03T04:26:37;7.05;;;3.85;;
7444;SDS011;3764;48.126;11.594;2023-04-03T04:29:04;3.95;;;3.42;;
7444;SDS011;3764;48.126;11.594;2023-04-03T04:31:31;5.00;;;3.95;;
7444;SDS011;3764;48.126;11.594;2023-04-03T04:33:58;8.55;;;4.88;;
7444;SDS011;3764;48.126;11.594;2023-04-03T04:36:25;5.20;;;4.13;;
7444;SDS011;3764;48.126;11.594;2023-04-03T04:38:54;4.70;;;3.95;;
7444;SDS011;3764;48.126;11.594;2023-04-03T04:41:22;4.35;;;3.95;;
7444;SDS011;3764;48.126;11.594;2023-04-03T04:43:49;5.78;;;4.22;;
7444;SDS011;3764;48.126;11.594;2023-04-03T04:46:17;5.80;;;3.88;;
7444;SDS011;3764;48.126;11.594;2023-04-03T04:48:44;4.80;;;4.05;;
7444;SDS011;3764;48.126;11.594;2023-04-03T04:51:11;6.32;;;4.28;;
7444;SDS011;3764;48.126;11.594;2023-04-03T04:53:38;5.68;;;4.05;;
7444;SDS011;3764;48.126;11.594;2023-04-03T04:56:07;4.43;;;3.90;;
7444;SDS011;3764;48.126;11.594;2023-04-03T04:58:34;4.45;;;3.97;;
7444;SDS011;3764;48.126;11.594;2023-04-03T05:01:01;6.43;;;3.35;;
7444;SDS011;3764;48.126;11.594;2023-04-03T05:03:29;4.95;;;4.45;;
7444;SDS011;3764;48.126;11.594;2023-04-03T05:05:56;4.10;;;3.70;;
7444;SDS011;3764;48.126;11.594;2023-04-03T05:08:23;6.43;;;4.60;;
7444;SDS011;3764;48.126;11.594;2023-04-03T05:10:51;6.28;;;4.10;;
7444;SDS011;3764;48.126;11.594;2023-04-03T05:13:19;4.22;;;3.83;;
7444;SDS011;3764;48.126;11.594;2023-04-03T05:15:47;3.80;;;3.50;;
7444;SDS011;3764;48.126;11.594;2023-04-03T05:18:14;6.05;;;5.55;;
7444;SDS011;3764;48.126;11.594;2023-04-03T05:20:41;6.07;;;4.75;;
7444;SDS011;3764;48.126;11.594;2023-04-03T05:23:08;5.60;;;3.88;;
7444;SDS011;3764;48.126;11.594;2023-04-03T05:25:36;5.60;;;4.55;;
7444;SDS011;3764;48.126;11.594;2023-04-03T05:28:04;4.88;;;4.38;;
7444;SDS011;3764;48.126;11.594;2023-04-03T05:30:33;6.10;;;4.75;;
7444;SDS011;3764;48.126;11.594;2023-04-03T05:33:00;5.53;;;3.85;;
7444;SDS011;3764;48.126;11.594;2023-04-03T05:35:27;6.00;;;5.05;;
7444;SDS011;3764;48.126;11.594;2023-04-03T05:37:55;4.82;;;4.10;;
7444;SDS011;3764;48.126;11.594;2023-04-03T05:40:22;6.97;;;4.10;;
7444;SDS011;3764;48.126;11.594;2023-04-03T05:42:49;5.78;;;4.60;;
7444;SDS011;3764;48.126;11.594;2023-04-03T05:45:18;5.95;;;4.40;;
7444;SDS011;3764;48.126;11.594;2023-04-03T05:47:47;4.80;;;4.28;;
7444;SDS011;3764;48.126;11.594;2023-04-03T05:50:14;5.80;;;5.20;;
7444;SDS011;3764;48.126;11.594;2023-04-03T05:52:42;4.20;;;3.80;;
7444;SDS011;3764;48.126;11.594;2023-04-03T05:55:12;5.35;;;4.10;;
7444;SDS011;3764;48.126;11.594;2023-04-03T05:57:39;5.60;;;4.72;;
7444;SDS011;3764;48.126;11.594;2023-04-03T06:00:07;4.47;;;4.07;;
7444;SDS011;3764;48.126;11.594;2023-04-03T06:02:35;4.30;;;3.47;;
7444;SDS011;3764;48.126;11.594;2023-04-03T06:05:04;5.28;;;4.78;;
7444;SDS011;3764;48.126;11.594;2023-04-03T06:07:32;6.05;;;4.13;;
7444;SDS011;3764;48.126;11.594;2023-04-03T06:09:59;6.13;;;5.00;;
7444;SDS011;3764;48.126;11.594;2023-04-03T06:12:26;7.22;;;4.40;;
7444;SDS011;3764;48.126;11.594;2023-04-03T06:14:55;5.05;;;4.10;;
7444;SDS011;3764;48.126;11.594;2023-04-03T06:17:22;5.55;;;3.70;;
7444;SDS011;3764;48.126;11.594;2023-04-03T06:19:49;5.22;;;4.30;;
7444;SDS011;3764;48.126;11.594;2023-04-03T06:22:18;4.95;;;4.50;;
7444;SDS011;3764;48.126;11.594;2023-04-03T06:24:45;5.32;;;4.18;;
7444;SDS011;3764;48.126;11.594;2023-04-03T06:27:12;5.95;;;4.50;;
7444;SDS011;3764;48.126;11.594;2023-04-03T06:29:39;6.13;;;4.65;;
7444;SDS011;3764;48.126;11.594;2023-04-03T06:32:06;8.50;;;4.88;;
7444;SDS011;3764;48.126;11.594;2023-04-03T06:34:33;6.03;;;5.03;;
7444;SDS011;3764;48.126;11.594;2023-04-03T06:37:00;4.95;;;4.45;;
7444;SDS011;3764;48.126;11.594;2023-04-03T06:39:28;6.28;;;4.60;;
7444;SDS011;3764;48.126;11.594;2023-04-03T06:41:55;6.10;;;4.60;;
7444;SDS011;3764;48.126;11.594;2023-04-03T06:44:23;5.88;;;4.72;;
7444;SDS011;3764;48.126;11.594;2023-04-03T06:46:50;5.93;;;4.85;;
7444;SDS011;3764;48.126;11.594;2023-04-03T06:49:17;6.97;;;4.43;;
7444;SDS011;3764;48.126;11.594;2023-04-03T06:51:44;6.65;;;4.90;;
7444;SDS011;3764;48.126;11.594;2023-04-03T06:54:11;8.63;;;5.53;;
7444;SDS011;3764;48.126;11.594;2023-04-03T06:56:41;5.57;;;4.13;;
7444;SDS011;3764;48.126;11.594;2023-04-03T06:59:09;7.22;;;4.43;;
7444;SDS011;3764;48.126;11.594;2023-04-03T07:01:36;6.18;;;4.90;;
7444;SDS011;3764;48.126;11.594;2023-04-03T07:04:03;6.18;;;4.50;;
7444;SDS011;3764;48.126;11.594;2023-04-03T07:06:30;5.10;;;4.40;;
7444;SDS011;3764;48.126;11.594;2023-04-03T07:08:58;5.47;;;4.93;;
7444;SDS011;3764;48.126;11.594;2023-04-03T07:11:25;9.93;;;4.57;;
7444;SDS011;3764;48.126;11.594;2023-04-03T07:13:54;6.93;;;5.05;;
7444;SDS011;3764;48.126;11.594;2023-04-03T07:16:21;5.45;;;4.90;;
7444;SDS011;3764;48.126;11.594;2023-04-03T07:18:48;4.88;;;4.18;;
7444;SDS011;3764;48.126;11.594;2023-04-03T07:21:16;5.22;;;4.40;;
7444;SDS011;3764;48.126;11.594;2023-04-03T07:23:43;7.20;;;4.95;;
7444;SDS011;3764;48.126;11.594;2023-04-03T07:26:10;5.28;;;4.78;;
7444;SDS011;3764;48.126;11.594;2023-04-03T07:28:38;7.40;;;4.63;;
7444;SDS011;3764;48.126;11.594;2023-04-03T07:31:08;4.53;;;4.13;;
7444;SDS011;3764;48.126;11.594;2023-04-03T07:33:38;5.90;;;4.15;;
7444;SDS011;3764;48.126;11.594;2023-04-03T07:36:06;8.57;;;5.18;;
7444;SDS011;3764;48.126;11.594;2023-04-03T07:38:35;5.45;;;4.80;;
7444;SDS011;3764;48.126;11.594;2023-04-03T07:41:03;6.88;;;5.03;;
7444;SDS011;3764;48.126;11.594;2023-04-03T07:43:30;7.15;;;5.20;;
7444;SDS011;3764;48.126;11.594;2023-04-03T07:45:58;9.45;;;6.28;;
7444;SDS011;3764;48.126;11.594;2023-04-03T07:48:27;8.75;;;5.60;;
7444;SDS011;3764;48.126;11.594;2023-04-03T07:50:54;6.50;;;5.05;;
7444;SDS011;3764;48.126;11.594;2023-04-03T07:53:26;7.55;;;5.60;;
7444;SDS011;3764;48.126;11.594;2023-04-03T07:55:53;10.18;;;6.10;;
7444;SDS011;3764;48.126;11.594;2023-04-03T07:58:22;8.00;;;6.00;;
7444;SDS011;3764;48.126;11.594;2023-04-03T08:00:49;7.47;;;6.57;;
7444;SDS011;3764;48.126;11.594;2023-04-03T08:03:16;9.77;;;6.35;;
7444;SDS011;3764;48.126;11.594;2023-04-03T08:05:45;9.00;;;6.20;;
7444;SDS011;3764;48.126;11.594;2023-04-03T08:08:14;8.48;;;6.90;;
7444;SDS011;3764;48.126;11.594;2023-04-03T08:10:43;7.38;;;6.38;;
7444;SDS011;3764;48.126;11.594;2023-04-03T08:13:10;9.30;;;6.40;;
7444;SDS011;3764;48.126;11.594;2023-04-03T08:15:37;10.02;;;7.20;;
7444;SDS011;3764;48.126;11.594;2023-04-03T08:18:04;9.77;;;6.63;;
7444;SDS011;3764;48.126;11.594;2023-04-03T08:20:31;8.43;;;7.32;;
7444;SDS011;3764;48.126;11.594;2023-04-03T08:23:00;9.70;;;7.20;;
7444;SDS011;3764;48.126;11.594;2023-04-03T08:25:27;10.07;;;7.97;;
7444;SDS011;3764;48.126;11.594;2023-04-03T08:27:54;8.75;;;6.80;;
7444;SDS011;3764;48.126;11.594;2023-04-03T08:30:22;7.47;;;6.60;;
7444;SDS011;3764;48.126;11.594;2023-04-03T08:32:49;11.27;;;6.15;;
7444;SDS011;3764;48.126;11.594;2023-04-03T08:35:16;11.25;;;8.00;;
7444;SDS011;3764;48.126;11.594;2023-04-03T08:37:45;8.20;;;6.80;;
7444;SDS011;3764;48.126;11.594;2023-04-03T08:40:14;7.72;;;6.40;;
7444;SDS011;3764;48.126;11.594;2023-04-03T08:42:45;8.35;;;6.15;;
7444;SDS011;3764;48.126;11.594;2023-04-03T08:45:25;11.20;;;6.28;;
7444;SDS011;3764;48.126;11.594;2023-04-03T08:48:00;7.25;;;6.47;;
7444;SDS011;3764;48.126;11.594;2023-04-03T08:50:33;7.63;;;6.82;;
7444;SDS011;3764;48.126;11.594;2023-04-03T08:53:06;9.70;;;6.15;;
7444;SDS011;3764;48.126;11.594;2023-04-03T08:55:42;7.00;;;6.22;;
7444;SDS011;3764;48.126;11.594;2023-04-03T08:58:12;8.43;;;6.07;;
7444;SDS011;3764;48.126;11.594;2023-04-03T09:00:43;7.05;;;6.25;;
7444;SDS011;3764;48.126;11.594;2023-04-03T09:03:16;7.70;;;6.55;;
7444;SDS011;3764;48.126;11.594;2023-04-03T09:05:45;7.63;;;6.25;;
7444;SDS011;3764;48.126;11.594;2023-04-03T09:08:21;7.55;;;5.68;;
7444;SDS011;3764;48.126;11.594;2023-04-03T09:11:20;7.88;;;6.35;;
7444;SDS011;3764;48.126;11.594;2023-04-03T09:13:54;7.75;;;5.90;;
7444;SDS011;3764;48.126;11.594;2023-04-03T09:16:27;8.82;;;5.97;;
7444;SDS011;3764;48.126;11.594;2023-04-03T09:19:04;9.00;;;6.90;;
7444;SDS011;3764;48.126;11.594;2023-04-03T09:21:41;6.95;;;6.00;;
7444;SDS011;3764;48.126;11.594;2023-04-03T09:24:09;9.23;;;6.68;;
7444;SDS011;3764;48.126;11.594;2023-04-03T09:26:41;7.32;;;6.55;;
7444;SDS011;3764;48.126;11.594;2023-04-03T09:29:14;7.70;;;6.75;;
7444;SDS011;3764;48.126;11.594;2023-04-03T09:31:46;7.50;;;6.65;;
7444;SDS011;3764;48.126;11.594;2023-04-03T09:34:17;8.35;;;6.93;;
7444;SDS011;3764;48.126;11.594;2023-04-03T09:36:48;6.97;;;6.10;;
7444;SDS011;3764;48.126;11.594;2023-04-03T09:39:17;7.70;;;6.53;;
7444;SDS011;3764;48.126;11.594;2023-04-03T09:41:58;6.80;;;6.03;;
7444;SDS011;3764;48.126;11.594;2023-04-03T09:44:28;8.32;;;7.10;;
7444;SDS011;3764;48.126;11.594;2023-04-03T09:46:57;7.20;;;6.50;;
7444;SDS011;3764;48.126;11.594;2023-04-03T09:49:24;6.82;;;5.80;;
7444;SDS011;3764;48.126;11.594;2023-04-03T09:51:51;7.40;;;6.07;;
7444;SDS011;3764;48.126;11.594;2023-04-03T09:54:26;8.93;;;6.22;;
7444;SDS011;3764;48.126;11.594;2023-04-03T09:57:02;7.57;;;6.43;;
7444;SDS011;3764;48.126;11.594;2023-04-03T09:59:33;7.60;;;5.45;;
7444;SDS011;3764;48.126;11.594;2023-04-03T10:02:02;7.63;;;5.35;;
7444;SDS011;3764;48.126;11.594;2023-04-03T10:04:37;6.35;;;5.47;;
7444;SDS011;3764;48.126;11.594;2023-04-03T10:09:56;6.72;;;5.18;;
7444;SDS011;3764;48.126;11.594;2023-04-03T10:12:26;7.32;;;5.47;;
7444;SDS011;3764;48.126;11.594;2023-04-03T10:14:54;6.40;;;5.45;;
7444;SDS011;3764;48.126;11.594;2023-04-03T10:17:25;6.18;;;5.25;;
7444;SDS011;3764;48.126;11.594;2023-04-03T10:20:00;9.90;;;4.90;;
7444;SDS011;3764;48.126;11.594;2023-04-03T10:22:38;6.38;;;5.53;;
7444;SDS011;3764;48.126;11.594;2023-04-03T10:25:15;8.25;;;6.50;;
7444;SDS011;3764;48.126;11.594;2023-04-03T10:27:51;6.70;;;5.75;;
7444;SDS011;3764;48.126;11.594;2023-04-03T10:30:34;7.97;;;5.40;;
7444;SDS011;3764;48.126;11.594;2023-04-03T10:33:19;7.10;;;6.28;;
7444;SDS011;3764;48.126;11.594;2023-04-03T10:35:56;7.10;;;6.40;;
7444;SDS011;3764;48.126;11.594;2023-04-03T10:38:48;11.13;;;6.40;;
7444;SDS011;3764;48.126;11.594;2023-04-03T10:41:25;7.43;;;5.35;;
7444;SDS011;3764;48.126;11.594;2023-04-03T10:44:05;6.10;;;5.50;;
7444;SDS011;3764;48.126;11.594;2023-04-03T10:46:38;10.85;;;5.57;;
7444;SDS011;3764;48.126;11.594;2023-04-03T10:49:16;5.00;;;4.47;;
7444;SDS011;3764;48.126;11.594;2023-04-03T10:51:53;6.88;;;6.10;;
7444;SDS011;3764;48.126;11.594;2023-04-03T10:54:31;5.10;;;4.60;;
7444;SDS011;3764;48.126;11.594;2023-04-03T10:57:03;9.15;;;6.05;;
7444;SDS011;3764;48.126;11.594;2023-04-03T10:59:35;7.10;;;4.95;;
7444;SDS011;3764;48.126;11.594;2023-04-03T11:02:06;7.70;;;5.72;;
7444;SDS011;3764;48.126;11.594;2023-04-03T11:04:37;7.65;;;5.05;;
7444;SDS011;3764;48.126;11.594;2023-04-03T11:07:07;6.30;;;5.53;;
7444;SDS011;3764;48.126;11.594;2023-04-03T11:09:40;5.03;;;4.55;;
7444;SDS011;3764;48.126;11.594;2023-04-03T11:12:12;6.70;;;6.00;;
7444;SDS011;3764;48.126;11.594;2023-04-03T11:14:44;5.45;;;4.82;;
7444;SDS011;3764;48.126;11.594;2023-04-03T11:17:19;5.35;;;4.60;;
7444;SDS011;3764;48.126;11.594;2023-04-03T11:19:57;8.15;;;4.82;;
7444;SDS011;3764;48.126;11.594;2023-04-03T11:22:32;5.50;;;4.20;;
7444;SDS011;3764;48.126;11.594;2023-04-03T11:25:03;5.55;;;4.80;;
7444;SDS011;3764;48.126;11.594;2023-04-03T11:27:35;5.22;;;4.72;;
7444;SDS011;3764;48.126;11.594;2023-04-03T11:30:09;6.28;;;4.60;;
7444;SDS011;3764;48.126;11.594;2023-04-03T11:32:51;7.68;;;4.18;;
7444;SDS011;3764;48.126;11.594;2023-04-03T11:35:29;4.55;;;4.00;;
7444;SDS011;3764;48.126;11.594;2023-04-03T11:37:58;5.05;;;3.97;;
7444;SDS011;3764;48.126;11.594;2023-04-03T11:40:29;7.88;;;3.47;;
7444;SDS011;3764;48.126;11.594;2023-04-03T11:43:02;4.93;;;3.53;;
7444;SDS011;3764;48.126;11.594;2023-04-03T11:45:36;4.05;;;3.65;;
7444;SDS011;3764;48.126;11.594;2023-04-03T11:48:04;4.47;;;3.58;;
7444;SDS011;3764;48.126;11.594;2023-04-03T11:50:39;4.55;;;3.80;;
7444;SDS011;3764;48.126;11.594;2023-04-03T11:53:25;4.20;;;3.17;;
7444;SDS011;3764;48.126;11.594;2023-04-03T11:55:56;4.00;;;3.65;;
7444;SDS011;3764;48.126;11.594;2023-04-03T11:58:25;5.75;;;3.97;;
7444;SDS011;3764;48.126;11.594;2023-04-03T12:00:58;4.80;;;3.90;;
7444;SDS011;3764;48.126;11.594;2023-04-03T12:03:35;5.80;;;2.75;;
7444;SDS011;3764;48.126;11.594;2023-04-03T12:06:43;4.65;;;4.22;;
7444;SDS011;3764;48.126;11.594;2023-04-03T12:09:24;8.82;;;3.22;;
7444;SDS011;3764;48.126;11.594;2023-04-03T12:11:53;5.78;;;3.10;;
7444;SDS011;3764;48.126;11.594;2023-04-03T12:14:22;4.13;;;3.55;;
7444;SDS011;3764;48.126;11.594;2023-04-03T12:16:52;7.90;;;3.40;;
7444;SDS011;3764;48.126;11.594;2023-04-03T12:19:31;6.82;;;5.20;;
7444;SDS011;3764;48.126;11.594;2023-04-03T12:22:10;4.13;;;3.30;;
7444;SDS011;3764;48.126;11.594;2023-04-03T12:24:40;5.25;;;2.85;;
7444;SDS011;3764;48.126;11.594;2023-04-03T12:27:20;3.20;;;2.88;;
7444;SDS011;3764;48.126;11.594;2023-04-03T12:29:51;6.82;;;3.20;;
7444;SDS011;3764;48.126;11.594;2023-04-03T12:32:25;5.63;;;3.15;;
7444;SDS011;3764;48.126;11.594;2023-04-03T12:35:09;5.18;;;3.05;;
7444;SDS011;3764;48.126;11.594;2023-04-03T12:37:48;3.97;;;2.50;;
7444;SDS011;3764;48.126;11.594;2023-04-03T12:40:29;3.47;;;2.95;;
7444;SDS011;3764;48.126;11.594;2023-04-03T12:43:18;3.55;;;3.00;;
7444;SDS011;3764;48.126;11.594;2023-04-03T12:45:56;4.28;;;2.50;;
7444;SDS011;3764;48.126;11.594;2023-04-03T12:48:29;5.93;;;2.95;;
7444;SDS011;3764;48.126;11.594;2023-04-03T12:50:59;2.50;;;2.30;;
7444;SDS011;3764;48.126;11.594;2023-04-03T12:53:27;2.78;;;2.42;;
7444;SDS011;3764;48.126;11.594;2023-04-03T12:56:19;3.25;;;2.65;;
7444;SDS011;3764;48.126;11.594;2023-04-03T12:58:48;4.60;;;2.63;;
7444;SDS011;3764;48.126;11.594;2023-04-03T13:01:17;5.95;;;2.60;;
7444;SDS011;3764;48.126;11.594;2023-04-03T13:03:47;4.05;;;3.45;;
7444;SDS011;3764;48.126;11.594;2023-04-03T13:06:18;5.72;;;5.22;;
7444;SDS011;3764;48.126;11.594;2023-04-03T13:08:48;5.65;;;2.90;;
7444;SDS011;3764;48.126;11.594;2023-04-03T13:11:16;2.33;;;2.13;;
7444;SDS011;3764;48.126;11.594;2023-04-03T13:13:56;2.67;;;2.00;;
7444;SDS011;3764;48.126;11.594;2023-04-03T13:16:25;5.95;;;2.47;;
7444;SDS011;3764;48.126;11.594;2023-04-03T13:18:53;3.85;;;2.55;;
7444;SDS011;3764;48.126;11.594;2023-04-03T13:21:25;5.05;;;2.78;;
7444;SDS011;3764;48.126;11.594;2023-04-03T13:23:55;3.10;;;2.10;;
7444;SDS011;3764;48.126;11.594;2023-04-03T13:26:26;2.45;;;1.90;;
7444;SDS011;3764;48.126;11.594;2023-04-03T13:28:57;3.13;;;2.47;;
7444;SDS011;3764;48.126;11.594;2023-04-03T13:31:29;5.03;;;2.50;;
7444;SDS011;3764;48.126;11.594;2023-04-03T13:34:02;2.40;;;2.20;;
7444;SDS011;3764;48.126;11.594;2023-04-03T13:36:33;2.85;;;2.65;;
7444;SDS011;3764;48.126;11.594;2023-04-03T13:39:03;3.33;;;2.58;;
7444;SDS011;3764;48.126;11.594;2023-04-03T13:41:32;6.18;;;2.10;;
7444;SDS011;3764;48.126;11.594;2023-04-03T13:44:16;3.53;;;2.45;;
7444;SDS011;3764;48.126;11.594;2023-04-03T13:46:56;4.63;;;2.22;;
7444;SDS011;3764;48.126;11.594;2023-04-03T13:49:28;3.10;;;2.75;;
7444;SDS011;3764;48.126;11.594;2023-04-03T13:51:59;2.33;;;1.75;;
7444;SDS011;3764;48.126;11.594;2023-04-03T13:54:29;4.95;;;2.53;;
7444;SDS011;3764;48.126;11.594;2023-04-03T13:56:59;1.85;;;1.75;;
7444;SDS011;3764;48.126;11.594;2023-04-03T13:59:29;2.20;;;1.83;;
7444;SDS011;3764;48.126;11.594;2023-04-03T14:02:09;2.67;;;2.00;;
7444;SDS011;3764;48.126;11.594;2023-04-03T14:04:48;3.80;;;2.60;;
7444;SDS011;3764;48.126;11.594;2023-04-03T14:07:19;6.40;;;2.95;;
7444;SDS011;3764;48.126;11.594;2023-04-03T14:09:47;2.78;;;2.08;;
7444;SDS011;3764;48.126;11.594;2023-04-03T14:12:16;3.70;;;2.90;;
7444;SDS011;3764;48.126;11.594;2023-04-03T14:14:44;4.53;;;2.85;;
7444;SDS011;3764;48.126;11.594;2023-04-03T14:17:13;4.13;;;3.65;;
7444;SDS011;3764;48.126;11.594;2023-04-03T14:19:42;5.10;;;2.67;;
7444;SDS011;3764;48.126;11.594;2023-04-03T14:22:13;4.13;;;2.20;;
7444;SDS011;3764;48.126;11.594;2023-04-03T14:24:44;3.33;;;2.20;;
7444;SDS011;3764;48.126;11.594;2023-04-03T14:27:14;3.75;;;2.10;;
7444;SDS011;3764;48.126;11.594;2023-04-03T14:29:43;5.70;;;2.22;;
7444;SDS011;3764;48.126;11.594;2023-04-03T14:32:11;5.72;;;3.05;;
7444;SDS011;3764;48.126;11.594;2023-04-03T14:34:39;2.40;;;2.20;;
7444;SDS011;3764;48.126;11.594;2023-04-03T14:37:09;5.70;;;2.08;;
7444;SDS011;3764;48.126;11.594;2023-04-03T14:39:38;3.75;;;2.17;;
7444;SDS011;3764;48.126;11.594;2023-04-03T14:42:09;4.70;;;2.47;;
7444;SDS011;3764;48.126;11.594;2023-04-03T14:44:39;2.58;;;1.85;;
7444;SDS011;3764;48.126;11.594;2023-04-03T14:47:08;2.70;;;1.85;;
7444;SDS011;3764;48.126;11.594;2023-04-03T14:49:37;3.25;;;1.92;;
7444;SDS011;3764;48.126;11.594;2023-04-03T14:52:04;2.67;;;2.25;;
7444;SDS011;3764;48.126;11.594;2023-04-03T14:54:31;2.85;;;2.28;;
7444;SDS011;3764;48.126;11.594;2023-04-03T14:56:59;2.40;;;1.70;;
7444;SDS011;3764;48.126;11.594;2023-04-03T14:59:29;2.63;;;2.10;;
7444;SDS011;3764;48.126;11.594;2023-04-03T15:01:57;6.45;;;2.72;;
7444;SDS011;3764;48.126;11.594;2023-04-03T15:04:24;2.17;;;1.98;;
7444;SDS011;3764;48.126;11.594;2023-04-03T15:06:53;5.15;;;2.28;;
7444;SDS011;3764;48.126;11.594;2023-04-03T15:09:20;3.08;;;1.95;;
7444;SDS011;3764;48.126;11.594;2023-04-03T15:11:49;3.03;;;1.73;;
7444;SDS011;3764;48.126;11.594;2023-04-03T15:14:18;2.88;;;1.80;;
7444;SDS011;3764;48.126;11.594;2023-04-03T15:16:46;1.80;;;1.50;;
7444;SDS011;3764;48.126;11.594;2023-04-03T15:19:14;2.67;;;1.98;;
7444;SDS011;3764;48.126;11.594;2023-04-03T15:21:41;3.72;;;2.05;;
7444;SDS011;3764;48.126;11.594;2023-04-03T15:24:09;3.75;;;2.10;;